Time;durP1;ratioP1;P1;durP2;ratioP2;P2;SDS_P1;SDS_P2;PMS_P1;PMS_P2;Temp;Humidity;BMP_temperature;BMP_pressure;BME280_temperature;BME280_humidity;BME280_pressure;Samples;Min_cycle;Max_cycle;Signal;HPM_P1;HPM_P2
2021/07/09 00:01:14;;;;;;;10.57;4.22;;;;;;;;;;369836;107;1964910;-70
2021/07/09 00:02:19;;;;;;;7.08;3.31;;;;;;;;;;370602;107;1968938;-70
2021/07/09 00:03:32;;;;;;;7.48;3.04;;;;;;;;;;391803;104;1985983;-71
2021/07/09 00:04:38;;;;;;;6.17;3.23;;;;;;;;;;375379;105;1964992;-71
2021/07/09 00:05:43;;;;;;;9.19;3.22;;;;;;;;;;376331;105;1961935;-70
2021/07/09 00:06:51;;;;;;;7.11;3.29;;;;;;;;;;356149;105;1962057;-71
2021/07/09 00:07:55;;;;;;;7.73;3.66;;;;;;;;;;353445;105;1963098;-70
2021/07/09 00:09:07;;;;;;;7.68;3.58;;;;;;;;;;397938;104;1986052;-71
2021/07/09 00:10:13;;;;;;;7.44;3.42;;;;;;;;;;379741;105;1965030;-70
2021/07/09 00:11:18;;;;;;;6.22;2.96;;;;;;;;;;376307;106;1962020;-71
2021/07/09 00:12:29;;;;;;;8.92;3.38;;;;;;;;;;390335;104;2071039;-69
2021/07/09 00:13:34;;;;;;;8.44;3.06;;;;;;;;;;375594;105;1961775;-70
2021/07/09 00:14:39;;;;;;;6.64;3.63;;;;;;;;;;375237;105;1962971;-71
2021/07/09 00:15:51;;;;;;;11.67;3.93;;;;;;;;;;401272;101;1986049;-70
2021/07/09 00:16:57;;;;;;;8.11;4.07;;;;;;;;;;379131;105;1964056;-70
2021/07/09 00:18:08;;;;;;;7.76;3.46;;;;;;;;;;383296;104;2987025;-70
2021/07/09 00:19:14;;;;;;;9.15;3.57;;;;;;;;;;374838;107;1962047;-70
2021/07/09 00:20:39;;;;;;;7.51;3.74;;;;;;;;;;372248;107;1961943;-70
2021/07/09 00:21:51;;;;;;;8.12;3.64;;;;;;;;;;349423;104;2179952;-71
2021/07/09 00:22:57;;;;;;;11.18;3.94;;;;;;;;;;344860;105;2584989;-70
2021/07/09 00:24:03;;;;;;;8.29;3.88;;;;;;;;;;336439;107;2561044;-71
2021/07/09 00:25:14;;;;;;;10.10;3.67;;;;;;;;;;394938;103;1971944;-69
2021/07/09 00:26:20;;;;;;;6.36;3.03;;;;;;;;;;369588;110;1964949;-71
2021/07/09 00:27:24;;;;;;;12.81;3.51;;;;;;;;;;371355;107;1961986;-70
2021/07/09 00:28:29;;;;;;;7.63;4.01;;;;;;;;;;371150;107;1962074;-70
2021/07/09 00:29:35;;;;;;;8.42;3.53;;;;;;;;;;369275;107;1962008;-69
2021/07/09 00:30:40;;;;;;;9.06;3.89;;;;;;;;;;369726;107;1967063;-70
2021/07/09 00:31:45;;;;;;;7.56;3.59;;;;;;;;;;353632;107;1963072;-69
2021/07/09 00:32:50;;;;;;;9.49;4.61;;;;;;;;;;333719;107;2057974;-70
2021/07/09 00:33:56;;;;;;;10.77;3.46;;;;;;;;;;308503;108;2462888;-71
2021/07/09 00:35:01;;;;;;;9.54;4.13;;;;;;;;;;319089;107;2223012;-71
2021/07/09 00:36:07;;;;;;;7.52;3.49;;;;;;;;;;304256;107;2437958;-70
2021/07/09 00:37:12;;;;;;;8.39;3.34;;;;;;;;;;339670;108;2027910;-69
2021/07/09 00:38:17;;;;;;;9.88;3.66;;;;;;;;;;296484;109;2428999;-68
2021/07/09 00:39:23;;;;;;;9.36;3.76;;;;;;;;;;314263;107;2461812;-70
2021/07/09 00:40:29;;;;;;;8.06;3.63;;;;;;;;;;371170;107;1961879;-70
2021/07/09 00:41:34;;;;;;;8.23;3.49;;;;;;;;;;368642;107;1962021;-69
2021/07/09 00:42:39;;;;;;;7.58;3.71;;;;;;;;;;350976;108;1962014;-69
2021/07/09 00:43:45;;;;;;;7.52;3.42;;;;;;;;;;316409;107;2264009;-70
2021/07/09 00:44:50;;;;;;;8.02;3.58;;;;;;;;;;324508;107;2169995;-70
2021/07/09 00:45:55;;;;;;;9.13;3.39;;;;;;;;;;305023;107;2436034;-69
2021/07/09 00:47:00;;;;;;;13.67;3.85;;;;;;;;;;308561;112;2237975;-70
2021/07/09 00:48:06;;;;;;;8.51;3.51;;;;;;;;;;322169;107;2537049;-70
2021/07/09 00:49:11;;;;;;;8.96;3.13;;;;;;;;;;313161;107;2267924;-70
2021/07/09 00:50:19;;;;;;;7.76;3.29;;;;;;;;;;370243;107;1962044;-70
2021/07/09 00:51:24;;;;;;;8.03;3.35;;;;;;;;;;371198;107;1961921;-70
2021/07/09 00:52:28;;;;;;;9.14;3.06;;;;;;;;;;370315;107;1961997;-71
2021/07/09 00:53:33;;;;;;;7.98;3.12;;;;;;;;;;368638;107;1961944;-71
2021/07/09 00:54:45;;;;;;;6.59;3.22;;;;;;;;;;396344;104;1987004;-70
2021/07/09 00:55:50;;;;;;;6.13;3.06;;;;;;;;;;379556;105;1969035;-69
2021/07/09 00:56:55;;;;;;;8.15;3.34;;;;;;;;;;369280;108;1960775;-70
2021/07/09 00:58:01;;;;;;;6.64;3.12;;;;;;;;;;365089;110;1964111;-69
2021/07/09 00:59:07;;;;;;;9.71;3.39;;;;;;;;;;364194;110;1962014;-70
2021/07/09 01:00:15;;;;;;;7.85;3.56;;;;;;;;;;370272;108;1962074;-70
2021/07/09 01:01:21;;;;;;;7.08;3.54;;;;;;;;;;329600;107;2550060;-70
2021/07/09 01:02:32;;;;;;;7.55;3.49;;;;;;;;;;384858;106;2070924;-70
2021/07/09 01:03:38;;;;;;;6.78;3.31;;;;;;;;;;368388;108;1962030;-71
2021/07/09 01:04:43;;;;;;;10.14;2.76;;;;;;;;;;369092;107;1962017;-73
2021/07/09 01:05:48;;;;;;;6.84;3.06;;;;;;;;;;366491;107;1962047;-72
2021/07/09 01:06:55;;;;;;;6.89;2.94;;;;;;;;;;364047;111;1961953;-72
2021/07/09 01:08:00;;;;;;;10.26;2.91;;;;;;;;;;356877;111;1962060;-73
2021/07/09 01:09:05;;;;;;;7.79;2.83;;;;;;;;;;363541;111;1961987;-71
2021/07/09 01:10:12;;;;;;;8.22;3.14;;;;;;;;;;358405;111;1964024;-72
2021/07/09 01:12:38;;;;;;;8.02;3.13;;;;;;;;;;396842;103;1985942;-73
2021/07/09 01:14:01;;;;;;;4.88;2.75;;;;;;;;;;366452;106;1963969;-73
2021/07/09 01:15:07;;;;;;;7.56;3.03;;;;;;;;;;348998;105;1992988;-71
2021/07/09 01:16:13;;;;;;;6.81;2.91;;;;;;;;;;378979;106;1962031;-73
2021/07/09 01:17:24;;;;;;;7.00;2.61;;;;;;;;;;391011;106;1987034;-72
2021/07/09 01:18:30;;;;;;;6.27;2.88;;;;;;;;;;371140;109;1969982;-72
2021/07/09 01:19:35;;;;;;;7.73;2.87;;;;;;;;;;371248;107;1961922;-72
2021/07/09 01:20:40;;;;;;;6.52;2.89;;;;;;;;;;370035;107;1964062;-72
2021/07/09 01:21:45;;;;;;;5.90;3.08;;;;;;;;;;365171;109;1962954;-72
2021/07/09 01:22:51;;;;;;;5.27;2.59;;;;;;;;;;369416;107;1960869;-72
2021/07/09 01:24:04;;;;;;;7.86;2.89;;;;;;;;;;388247;104;2072002;-73
2021/07/09 01:25:14;;;;;;;6.99;2.88;;;;;;;;;;335589;107;2687016;-73
2021/07/09 01:26:20;;;;;;;7.24;2.86;;;;;;;;;;329939;107;2563075;-73
2021/07/09 01:27:25;;;;;;;11.50;3.18;;;;;;;;;;297468;108;2424946;-73
2021/07/09 01:28:31;;;;;;;7.93;2.96;;;;;;;;;;301839;107;2457046;-72
2021/07/09 01:29:36;;;;;;;6.51;2.34;;;;;;;;;;303950;108;2436022;-72
2021/07/09 01:30:43;;;;;;;6.90;2.58;;;;;;;;;;372446;107;1963995;-72
2021/07/09 01:31:48;;;;;;;8.53;2.48;;;;;;;;;;373044;108;1963035;-72
2021/07/09 01:32:59;;;;;;;9.11;3.22;;;;;;;;;;384708;106;1986976;-72
2021/07/09 01:34:05;;;;;;;5.19;2.97;;;;;;;;;;365231;107;1962005;-71
2021/07/09 01:35:10;;;;;;;6.81;2.51;;;;;;;;;;359744;112;1961950;-72
2021/07/09 01:36:18;;;;;;;8.31;2.97;;;;;;;;;;357942;112;1962947;-73
2021/07/09 01:37:29;;;;;;;6.24;2.68;;;;;;;;;;331176;104;2451992;-72
2021/07/09 01:38:34;;;;;;;8.48;2.75;;;;;;;;;;318965;105;2246997;-72
2021/07/09 01:39:40;;;;;;;5.94;2.47;;;;;;;;;;323838;105;2209940;-72
2021/07/09 01:40:47;;;;;;;6.30;2.61;;;;;;;;;;366519;108;1962966;-72
2021/07/09 01:41:52;;;;;;;5.64;3.05;;;;;;;;;;364435;109;1961972;-70
2021/07/09 01:43:04;;;;;;;6.32;2.87;;;;;;;;;;384678;106;1985948;-70
2021/07/09 01:44:09;;;;;;;5.76;2.88;;;;;;;;;;366292;108;1965988;-72
2021/07/09 01:45:22;;;;;;;7.14;3.16;;;;;;;;;;351269;104;2713085;-71
2021/07/09 01:46:28;;;;;;;9.47;2.98;;;;;;;;;;371627;107;1961984;-71
2021/07/09 01:47:33;;;;;;;9.73;3.27;;;;;;;;;;370371;107;1964022;-72
2021/07/09 01:48:45;;;;;;;10.61;2.94;;;;;;;;;;393953;104;1986075;-71
2021/07/09 01:49:57;;;;;;;7.21;2.94;;;;;;;;;;376751;107;1970023;-70
2021/07/09 01:51:09;;;;;;;7.62;3.04;;;;;;;;;;359894;106;2019950;-70
2021/07/09 01:52:14;;;;;;;7.62;2.98;;;;;;;;;;297344;109;2408917;-72
2021/07/09 01:53:37;;;;;;;6.52;2.77;;;;;;;;;;367829;108;1961985;-72
2021/07/09 01:54:42;;;;;;;7.28;2.83;;;;;;;;;;369901;108;1963913;-72
2021/07/09 01:55:47;;;;;;;5.87;2.52;;;;;;;;;;365669;109;1963052;-72
2021/07/09 01:56:59;;;;;;;6.12;2.76;;;;;;;;;;379227;108;1986046;-70
2021/07/09 01:58:04;;;;;;;6.04;2.97;;;;;;;;;;359586;111;1964939;-71
2021/07/09 01:59:09;;;;;;;6.26;2.73;;;;;;;;;;355622;113;1961980;-73
2021/07/09 02:00:18;;;;;;;6.68;2.87;;;;;;;;;;360992;111;1961985;-72
2021/07/09 02:01:23;;;;;;;6.29;2.66;;;;;;;;;;351400;113;1963019;-72
2021/07/09 02:02:28;;;;;;;8.56;2.70;;;;;;;;;;331203;113;1961013;-71
2021/07/09 02:03:33;;;;;;;6.63;3.11;;;;;;;;;;293221;113;2320039;-72
2021/07/09 02:04:49;;;;;;;6.35;2.66;;;;;;;;;;287767;113;2375917;-71
2021/07/09 02:06:01;;;;;;;8.30;3.26;;;;;;;;;;386484;104;2070805;-72
2021/07/09 02:07:05;;;;;;;6.49;2.89;;;;;;;;;;370458;107;1969895;-72
2021/07/09 02:08:10;;;;;;;6.98;2.83;;;;;;;;;;371407;107;1960790;-71
2021/07/09 02:09:22;;;;;;;7.96;2.94;;;;;;;;;;391519;104;1986907;-72
2021/07/09 02:10:32;;;;;;;7.03;2.94;;;;;;;;;;373397;107;1963830;-73
2021/07/09 02:11:43;;;;;;;10.94;3.20;;;;;;;;;;388393;106;1984957;-71
2021/07/09 02:12:54;;;;;;;8.19;3.05;;;;;;;;;;370033;109;1968859;-71
2021/07/09 02:14:17;;;;;;;6.64;2.89;;;;;;;;;;334961;109;2651061;-71
2021/07/09 02:15:24;;;;;;;7.36;3.12;;;;;;;;;;315453;109;2492867;-71
2021/07/09 02:16:29;;;;;;;7.23;2.71;;;;;;;;;;367479;108;1960955;-72
2021/07/09 02:17:35;;;;;;;5.69;2.68;;;;;;;;;;369605;108;1960810;-71
2021/07/09 02:18:40;;;;;;;9.11;2.84;;;;;;;;;;372833;108;1962044;-71
2021/07/09 02:19:51;;;;;;;6.38;2.51;;;;;;;;;;385859;106;1986045;-72
2021/07/09 02:20:58;;;;;;;7.16;3.08;;;;;;;;;;365510;109;1970029;-70
2021/07/09 02:22:11;;;;;;;6.45;2.97;;;;;;;;;;375723;104;1985897;-71
2021/07/09 02:23:16;;;;;;;6.64;3.19;;;;;;;;;;377654;107;1963024;-72
2021/07/09 02:24:41;;;;;;;8.68;3.74;;;;;;;;;;376256;106;1962076;-72
2021/07/09 02:25:46;;;;;;;8.63;2.92;;;;;;;;;;308019;106;2438023;-72
2021/07/09 02:26:52;;;;;;;15.12;3.77;;;;;;;;;;373457;108;1962038;-72
2021/07/09 02:27:57;;;;;;;11.72;3.54;;;;;;;;;;371360;107;1963003;-73
2021/07/09 02:29:03;;;;;;;6.56;2.74;;;;;;;;;;363589;108;1962921;-72
2021/07/09 02:30:10;;;;;;;8.88;3.35;;;;;;;;;;374865;108;1963048;-73
2021/07/09 02:31:24;;;;;;;8.61;3.79;;;;;;;;;;353454;104;2738961;-73
2021/07/09 02:32:29;;;;;;;8.49;3.34;;;;;;;;;;377020;105;1970882;-73
2021/07/09 02:33:34;;;;;;;7.74;2.73;;;;;;;;;;375769;105;1961881;-73
2021/07/09 02:34:40;;;;;;;7.22;3.18;;;;;;;;;;364468;105;1962164;-73
2021/07/09 02:35:45;;;;;;;7.91;3.33;;;;;;;;;;365995;105;1962001;-72
2021/07/09 02:36:50;;;;;;;8.64;3.09;;;;;;;;;;330692;107;2068912;-73
2021/07/09 02:37:56;;;;;;;8.03;2.71;;;;;;;;;;314050;105;2449958;-73
2021/07/09 02:39:01;;;;;;;8.56;3.12;;;;;;;;;;354582;105;1961899;-73
2021/07/09 02:40:07;;;;;;;6.13;2.79;;;;;;;;;;333510;106;2124833;-73
2021/07/09 02:41:12;;;;;;;8.54;3.51;;;;;;;;;;376834;105;1962015;-73
2021/07/09 02:42:17;;;;;;;10.64;3.31;;;;;;;;;;378589;105;1962033;-72
2021/07/09 02:43:29;;;;;;;7.46;3.35;;;;;;;;;;401270;104;1986015;-72
2021/07/09 02:44:34;;;;;;;7.83;3.83;;;;;;;;;;379642;105;1967988;-72
2021/07/09 02:45:39;;;;;;;9.86;3.80;;;;;;;;;;377417;105;1961980;-71
2021/07/09 02:46:49;;;;;;;8.27;3.14;;;;;;;;;;324516;107;2183019;-72
2021/07/09 02:48:00;;;;;;;8.13;3.67;;;;;;;;;;387958;104;2072037;-73
2021/07/09 02:49:05;;;;;;;11.82;3.42;;;;;;;;;;377211;105;1970070;-74
2021/07/09 02:50:13;;;;;;;12.23;3.72;;;;;;;;;;374693;105;1964909;-73
2021/07/09 02:51:20;;;;;;;9.56;3.69;;;;;;;;;;373053;107;1963039;-74
2021/07/09 02:52:25;;;;;;;9.36;3.53;;;;;;;;;;351938;108;1961960;-73
2021/07/09 02:53:37;;;;;;;7.56;3.69;;;;;;;;;;395602;103;1987006;-73
2021/07/09 02:54:42;;;;;;;10.33;4.61;;;;;;;;;;379982;105;1961957;-73
2021/07/09 02:55:46;;;;;;;11.48;3.98;;;;;;;;;;366172;105;1961947;-73
2021/07/09 02:56:52;;;;;;;9.71;4.08;;;;;;;;;;358798;106;1961957;-73
2021/07/09 02:57:57;;;;;;;12.31;4.08;;;;;;;;;;322543;105;2236991;-73
2021/07/09 02:59:03;;;;;;;8.77;3.73;;;;;;;;;;337378;105;2557955;-72
2021/07/09 03:00:16;;;;;;;12.98;4.83;;;;;;;;;;397533;103;1964981;-72
2021/07/09 03:01:21;;;;;;;10.68;4.44;;;;;;;;;;373460;107;1964853;-72
2021/07/09 03:02:26;;;;;;;13.92;4.56;;;;;;;;;;372797;107;1963983;-72
2021/07/09 03:03:38;;;;;;;10.04;4.12;;;;;;;;;;386374;104;2927974;-72
2021/07/09 03:04:43;;;;;;;9.07;4.73;;;;;;;;;;366772;107;2885022;-72
2021/07/09 03:05:49;;;;;;;13.07;4.34;;;;;;;;;;374219;107;1961989;-72
2021/07/09 03:06:55;;;;;;;9.43;3.74;;;;;;;;;;316370;107;2238026;-72
2021/07/09 03:08:01;;;;;;;11.46;4.02;;;;;;;;;;331969;107;2545877;-72
2021/07/09 03:09:06;;;;;;;9.76;3.99;;;;;;;;;;317365;108;2486959;-74
2021/07/09 03:10:12;;;;;;;10.28;3.85;;;;;;;;;;371798;109;1961938;-72
2021/07/09 03:11:17;;;;;;;7.71;3.37;;;;;;;;;;368975;108;1962075;-73
2021/07/09 03:12:22;;;;;;;10.44;3.68;;;;;;;;;;347824;107;1962083;-73
2021/07/09 03:13:34;;;;;;;9.46;4.59;;;;;;;;;;393140;104;1988060;-73
2021/07/09 03:14:41;;;;;;;8.77;4.01;;;;;;;;;;376928;106;1969935;-73
2021/07/09 03:15:45;;;;;;;11.06;4.52;;;;;;;;;;376226;106;1962963;-72
2021/07/09 03:16:51;;;;;;;9.02;4.27;;;;;;;;;;371240;108;1961984;-72
2021/07/09 03:17:55;;;;;;;6.82;3.22;;;;;;;;;;373189;106;1962934;-73
2021/07/09 03:19:03;;;;;;;11.29;4.18;;;;;;;;;;371481;106;1961933;-73
2021/07/09 03:20:34;;;;;;;9.90;4.32;;;;;;;;;;412508;99;2071969;-74
2021/07/09 03:21:40;;;;;;;8.81;3.67;;;;;;;;;;390268;102;1962006;-72
2021/07/09 03:22:45;;;;;;;6.92;3.65;;;;;;;;;;391943;101;1962942;-72
2021/07/09 03:23:50;;;;;;;15.76;4.16;;;;;;;;;;389011;101;1962968;-72
2021/07/09 03:24:56;;;;;;;9.74;3.85;;;;;;;;;;393423;101;1961959;-73
2021/07/09 03:26:07;;;;;;;14.18;4.92;;;;;;;;;;345966;104;2193017;-72
2021/07/09 03:27:13;;;;;;;10.11;4.19;;;;;;;;;;324962;109;2543947;-72
2021/07/09 03:28:24;;;;;;;12.21;4.28;;;;;;;;;;384584;106;2070972;-71
2021/07/09 03:29:29;;;;;;;13.33;4.98;;;;;;;;;;365642;109;1961959;-73
2021/07/09 03:30:35;;;;;;;12.04;4.15;;;;;;;;;;367250;108;1962038;-70
2021/07/09 03:31:40;;;;;;;8.24;3.90;;;;;;;;;;361564;109;1961979;-73
2021/07/09 03:32:51;;;;;;;12.97;3.82;;;;;;;;;;394803;104;1986991;-73
2021/07/09 03:33:56;;;;;;;9.16;3.74;;;;;;;;;;375535;105;1969852;-72
2021/07/09 03:35:02;;;;;;;11.02;4.71;;;;;;;;;;374853;106;1962083;-73
2021/07/09 03:36:07;;;;;;;9.23;3.87;;;;;;;;;;372733;107;1962002;-73
2021/07/09 03:37:12;;;;;;;9.65;3.78;;;;;;;;;;369262;107;1962052;-72
2021/07/09 03:38:23;;;;;;;12.31;4.21;;;;;;;;;;383654;106;1988000;-73
2021/07/09 03:39:29;;;;;;;11.82;4.29;;;;;;;;;;370877;109;1968950;-72
2021/07/09 03:40:34;;;;;;;11.20;4.03;;;;;;;;;;367374;109;1962031;-74
2021/07/09 03:41:40;;;;;;;16.44;5.01;;;;;;;;;;365372;110;1961969;-73
2021/07/09 03:42:45;;;;;;;16.78;6.89;;;;;;;;;;367894;109;1962026;-74
2021/07/09 03:43:50;;;;;;;17.38;6.12;;;;;;;;;;365693;109;1961944;-72
2021/07/09 03:44:58;;;;;;;15.27;5.78;;;;;;;;;;367013;109;1962028;-71
2021/07/09 03:46:03;;;;;;;14.54;6.28;;;;;;;;;;364646;109;1963023;-73
2021/07/09 03:47:09;;;;;;;18.51;6.55;;;;;;;;;;364575;108;1962046;-72
2021/07/09 03:48:14;;;;;;;16.10;6.84;;;;;;;;;;357768;110;2852890;-73
2021/07/09 03:49:19;;;;;;;15.53;6.40;;;;;;;;;;367924;109;1961996;-71
2021/07/09 03:50:26;;;;;;;16.28;6.07;;;;;;;;;;339751;110;1973019;-73
2021/07/09 03:51:32;;;;;;;22.38;6.94;;;;;;;;;;306046;108;2296280;-74
2021/07/09 03:52:37;;;;;;;18.87;7.88;;;;;;;;;;334703;111;2026941;-74
2021/07/09 03:53:42;;;;;;;14.50;6.77;;;;;;;;;;302193;108;2337019;-74
2021/07/09 03:54:48;;;;;;;13.91;5.83;;;;;;;;;;289268;111;2416078;-73
2021/07/09 03:55:53;;;;;;;10.41;5.33;;;;;;;;;;308932;109;2279965;-72
2021/07/09 03:56:58;;;;;;;15.53;5.44;;;;;;;;;;339160;111;1981051;-74
2021/07/09 03:58:04;;;;;;;11.41;5.26;;;;;;;;;;296563;110;2393029;-73
2021/07/09 03:59:15;;;;;;;16.96;6.06;;;;;;;;;;397048;103;1986056;-74
2021/07/09 04:00:22;;;;;;;16.52;5.70;;;;;;;;;;374042;107;1971049;-75
2021/07/09 04:01:27;;;;;;;15.66;4.97;;;;;;;;;;376778;106;1962013;-73
2021/07/09 04:02:32;;;;;;;17.86;5.76;;;;;;;;;;376347;106;1962026;-73
2021/07/09 04:03:37;;;;;;;14.61;6.16;;;;;;;;;;376520;106;1961942;-74
2021/07/09 04:04:42;;;;;;;12.91;4.74;;;;;;;;;;364271;110;1962963;-73
2021/07/09 04:05:54;;;;;;;15.62;5.78;;;;;;;;;;378371;108;1986971;-73
2021/07/09 04:07:00;;;;;;;15.74;5.90;;;;;;;;;;362913;110;1964968;-72
2021/07/09 04:08:07;;;;;;;13.93;5.12;;;;;;;;;;362480;111;1962961;-73
2021/07/09 04:09:12;;;;;;;15.38;4.75;;;;;;;;;;362030;111;1962831;-73
2021/07/09 04:10:26;;;;;;;12.75;5.44;;;;;;;;;;396716;104;1993820;-72
2021/07/09 04:11:31;;;;;;;23.47;5.27;;;;;;;;;;374251;106;1969911;-73
2021/07/09 04:12:37;;;;;;;12.50;4.96;;;;;;;;;;375510;107;1962914;-72
2021/07/09 04:13:42;;;;;;;12.74;4.07;;;;;;;;;;375414;107;1961025;-72
2021/07/09 04:14:53;;;;;;;12.63;5.26;;;;;;;;;;398540;104;1986063;-72
2021/07/09 04:15:58;;;;;;;11.33;4.64;;;;;;;;;;374700;106;1967816;-72
2021/07/09 04:17:03;;;;;;;12.14;4.66;;;;;;;;;;371839;107;1961970;-72
2021/07/09 04:18:08;;;;;;;8.87;4.33;;;;;;;;;;370852;107;1962954;-72
2021/07/09 04:19:13;;;;;;;10.41;3.99;;;;;;;;;;370992;107;1960919;-73
2021/07/09 04:20:19;;;;;;;12.83;4.67;;;;;;;;;;371600;107;1962062;-72
2021/07/09 04:21:24;;;;;;;12.78;5.07;;;;;;;;;;373483;107;1961991;-73
2021/07/09 04:22:29;;;;;;;14.71;5.99;;;;;;;;;;367022;107;1961948;-73
2021/07/09 04:23:40;;;;;;;14.14;5.90;;;;;;;;;;399992;104;1986023;-73
2021/07/09 04:24:45;;;;;;;16.14;7.61;;;;;;;;;;379109;105;1964035;-73
2021/07/09 04:25:50;;;;;;;16.04;7.73;;;;;;;;;;376485;105;1962039;-73
2021/07/09 04:27:02;;;;;;;20.19;8.18;;;;;;;;;;399194;104;1988001;-72
2021/07/09 04:28:12;;;;;;;14.51;6.91;;;;;;;;;;378749;105;1970005;-74
2021/07/09 04:29:18;;;;;;;15.21;6.54;;;;;;;;;;379706;105;1962984;-73
2021/07/09 04:30:26;;;;;;;14.91;6.52;;;;;;;;;;379335;105;1962929;-72
2021/07/09 04:31:37;;;;;;;14.03;6.77;;;;;;;;;;380473;104;1962994;-73
2021/07/09 04:32:42;;;;;;;13.72;6.69;;;;;;;;;;319668;105;2299852;-72
2021/07/09 04:33:50;;;;;;;18.93;8.86;;;;;;;;;;316643;105;2493884;-72
2021/07/09 04:34:55;;;;;;;17.40;8.09;;;;;;;;;;379272;105;1962052;-73
2021/07/09 04:36:00;;;;;;;18.10;7.66;;;;;;;;;;377600;105;1962050;-72
2021/07/09 04:37:08;;;;;;;19.79;7.62;;;;;;;;;;366250;107;1962047;-74
2021/07/09 04:38:13;;;;;;;12.82;6.82;;;;;;;;;;374082;107;1962059;-73
2021/07/09 04:39:19;;;;;;;14.55;6.54;;;;;;;;;;372185;107;1961941;-74
2021/07/09 04:40:26;;;;;;;14.99;7.31;;;;;;;;;;362709;106;1961911;-74
2021/07/09 04:41:31;;;;;;;18.08;7.70;;;;;;;;;;329367;107;2178906;-73
2021/07/09 04:42:36;;;;;;;11.58;6.61;;;;;;;;;;307348;107;2460056;-73
2021/07/09 04:43:42;;;;;;;13.83;6.81;;;;;;;;;;327169;107;2547012;-73
2021/07/09 04:44:47;;;;;;;16.16;6.56;;;;;;;;;;310982;107;2515975;-73
2021/07/09 04:45:53;;;;;;;14.41;6.81;;;;;;;;;;312480;107;2515032;-72
2021/07/09 04:46:58;;;;;;;12.06;6.29;;;;;;;;;;310991;107;2457012;-72
2021/07/09 04:48:04;;;;;;;15.15;5.94;;;;;;;;;;307008;107;2384993;-72
2021/07/09 04:49:10;;;;;;;14.55;6.25;;;;;;;;;;373673;107;1961978;-72
2021/07/09 04:50:15;;;;;;;16.04;5.97;;;;;;;;;;374915;107;1961962;-72
2021/07/09 04:51:27;;;;;;;18.08;7.40;;;;;;;;;;394683;104;1986091;-72
2021/07/09 04:52:32;;;;;;;12.85;5.67;;;;;;;;;;372887;106;1969902;-74
2021/07/09 04:53:37;;;;;;;18.49;7.47;;;;;;;;;;376070;105;1963059;-72
2021/07/09 04:54:42;;;;;;;14.39;6.46;;;;;;;;;;365587;108;1962072;-73
2021/07/09 04:55:53;;;;;;;15.28;7.22;;;;;;;;;;397296;104;1985984;-74
2021/07/09 04:56:58;;;;;;;16.34;6.72;;;;;;;;;;363358;109;1970034;-74
2021/07/09 04:58:10;;;;;;;18.59;7.89;;;;;;;;;;405421;101;1986996;-73
2021/07/09 04:59:15;;;;;;;16.31;6.47;;;;;;;;;;390340;103;1968980;-75
2021/07/09 05:00:20;;;;;;;13.36;5.26;;;;;;;;;;387048;103;1962989;-73
2021/07/09 05:01:25;;;;;;;14.68;5.12;;;;;;;;;;381888;105;1962944;-74
2021/07/09 05:02:40;;;;;;;13.43;5.52;;;;;;;;;;403601;101;1986074;-73
2021/07/09 05:03:45;;;;;;;15.58;5.69;;;;;;;;;;315474;105;2389018;-72
2021/07/09 05:04:51;;;;;;;19.42;7.56;;;;;;;;;;315477;105;2469023;-73
2021/07/09 05:05:56;;;;;;;15.84;7.34;;;;;;;;;;325859;104;2286043;-73
2021/07/09 05:07:07;;;;;;;17.51;7.13;;;;;;;;;;402288;101;1985067;-73
2021/07/09 05:08:12;;;;;;;15.47;6.09;;;;;;;;;;382248;105;1969985;-74
2021/07/09 05:09:17;;;;;;;13.52;5.46;;;;;;;;;;340850;103;2163950;-73
2021/07/09 05:10:24;;;;;;;12.31;5.52;;;;;;;;;;379507;105;1962008;-73
2021/07/09 05:11:32;;;;;;;14.72;4.79;;;;;;;;;;385611;105;1961874;-74
2021/07/09 05:12:38;;;;;;;12.44;4.43;;;;;;;;;;380059;105;1964765;-74
2021/07/09 05:13:43;;;;;;;12.35;5.14;;;;;;;;;;384654;103;1963067;-74
2021/07/09 05:14:49;;;;;;;10.90;6.53;;;;;;;;;;381206;103;1962068;-73
2021/07/09 05:15:54;;;;;;;18.98;7.82;;;;;;;;;;381060;105;1962805;-74
2021/07/09 05:17:00;;;;;;;18.04;7.55;;;;;;;;;;385164;105;1962035;-73
2021/07/09 05:18:05;;;;;;;15.01;5.65;;;;;;;;;;384933;105;1961979;-73
2021/07/09 05:19:11;;;;;;;13.54;5.23;;;;;;;;;;383043;103;1962896;-73
2021/07/09 05:20:17;;;;;;;13.03;5.52;;;;;;;;;;330608;103;2265932;-74
2021/07/09 05:21:25;;;;;;;21.89;8.25;;;;;;;;;;311427;103;2423890;-73
2021/07/09 05:22:30;;;;;;;14.90;5.81;;;;;;;;;;382797;103;1962907;-74
2021/07/09 05:23:35;;;;;;;14.85;6.37;;;;;;;;;;380883;105;1961902;-74
2021/07/09 05:24:40;;;;;;;14.49;6.91;;;;;;;;;;386489;103;1961863;-74
2021/07/09 05:25:45;;;;;;;15.82;6.64;;;;;;;;;;372521;107;1961966;-73
2021/07/09 05:26:50;;;;;;;10.19;5.18;;;;;;;;;;361013;107;1964072;-73
2021/07/09 05:27:56;;;;;;;10.86;4.24;;;;;;;;;;325138;109;2165968;-73
2021/07/09 05:29:07;;;;;;;10.32;4.18;;;;;;;;;;398654;104;1986012;-74
2021/07/09 05:30:14;;;;;;;12.62;4.43;;;;;;;;;;380041;105;1969903;-73
2021/07/09 05:31:19;;;;;;;19.31;7.08;;;;;;;;;;376042;105;1961951;-73
2021/07/09 05:32:25;;;;;;;12.83;6.05;;;;;;;;;;378646;107;1962882;-74
2021/07/09 05:33:30;;;;;;;10.51;5.02;;;;;;;;;;378204;105;1961885;-74
2021/07/09 05:34:36;;;;;;;12.28;5.19;;;;;;;;;;376139;106;1961934;-74
2021/07/09 05:35:42;;;;;;;13.86;5.75;;;;;;;;;;376430;106;1960879;-74
2021/07/09 05:36:48;;;;;;;13.79;5.98;;;;;;;;;;374926;105;1961948;-73
2021/07/09 05:37:54;;;;;;;11.04;4.68;;;;;;;;;;375857;107;1960791;-74
2021/07/09 05:38:59;;;;;;;8.86;4.44;;;;;;;;;;373229;105;1961973;-74
2021/07/09 05:40:06;;;;;;;10.24;4.09;;;;;;;;;;375928;106;1961981;-74
2021/07/09 05:41:11;;;;;;;11.79;5.17;;;;;;;;;;331169;106;2803032;-74
2021/07/09 05:42:17;;;;;;;11.81;4.32;;;;;;;;;;321876;106;2556967;-73
2021/07/09 05:43:22;;;;;;;11.94;4.07;;;;;;;;;;319433;106;2291062;-73
2021/07/09 05:44:28;;;;;;;11.75;4.62;;;;;;;;;;329735;105;2631059;-74
2021/07/09 05:45:41;;;;;;;8.84;3.84;;;;;;;;;;390565;104;2071918;-74
2021/07/09 05:46:50;;;;;;;9.44;4.06;;;;;;;;;;366225;105;1959687;-73
2021/07/09 05:47:56;;;;;;;9.53;3.56;;;;;;;;;;358319;111;1961837;-73
2021/07/09 05:49:01;;;;;;;9.86;4.77;;;;;;;;;;363466;108;1962100;-74
2021/07/09 05:50:06;;;;;;;11.40;4.68;;;;;;;;;;363807;108;1963018;-73
2021/07/09 05:51:11;;;;;;;14.28;5.26;;;;;;;;;;356616;110;1962098;-75
2021/07/09 05:52:17;;;;;;;8.08;3.08;;;;;;;;;;323044;111;2095991;-73
2021/07/09 05:53:22;;;;;;;8.94;3.34;;;;;;;;;;288060;112;2459092;-73
2021/07/09 05:54:34;;;;;;;12.08;3.82;;;;;;;;;;392012;103;2071015;-74
2021/07/09 05:55:39;;;;;;;9.59;3.02;;;;;;;;;;373799;106;1970045;-74
2021/07/09 05:56:54;;;;;;;7.63;2.79;;;;;;;;;;382219;104;1987014;-74
2021/07/09 05:57:59;;;;;;;7.72;3.34;;;;;;;;;;311049;105;2359911;-73
2021/07/09 05:59:22;;;;;;;11.82;4.78;;;;;;;;;;374316;107;1961974;-73
2021/07/09 06:00:30;;;;;;;13.39;4.48;;;;;;;;;;336496;107;2686017;-72
2021/07/09 06:01:36;;;;;;;12.48;4.63;;;;;;;;;;298716;109;2442864;-74
2021/07/09 06:02:41;;;;;;;6.73;2.31;;;;;;;;;;298952;107;2433885;-74
2021/07/09 06:03:47;;;;;;;7.00;2.22;;;;;;;;;;302062;107;2497987;-74
2021/07/09 06:04:52;;;;;;;5.66;2.35;;;;;;;;;;302825;107;2505011;-74
2021/07/09 06:05:58;;;;;;;6.96;2.76;;;;;;;;;;305265;107;2553926;-73
2021/07/09 06:07:03;;;;;;;4.91;2.06;;;;;;;;;;310496;107;2320929;-73
2021/07/09 06:08:10;;;;;;;6.58;2.73;;;;;;;;;;298682;107;2453044;-74
2021/07/09 06:09:25;;;;;;;5.52;2.35;;;;;;;;;;344198;107;1997890;-73
2021/07/09 06:10:33;;;;;;;8.43;2.58;;;;;;;;;;371200;107;1962058;-74
2021/07/09 06:11:38;;;;;;;5.71;2.34;;;;;;;;;;365999;110;1961902;-74
2021/07/09 06:12:43;;;;;;;8.81;3.55;;;;;;;;;;368732;110;1963044;-75
2021/07/09 06:13:48;;;;;;;4.97;2.13;;;;;;;;;;369376;110;1961961;-73
2021/07/09 06:14:53;;;;;;;3.87;1.78;;;;;;;;;;359319;112;1962040;-74
2021/07/09 06:16:04;;;;;;;9.16;2.26;;;;;;;;;;394231;104;1984976;-73
2021/07/09 06:17:09;;;;;;;4.06;1.76;;;;;;;;;;372356;107;1968923;-74
2021/07/09 06:18:15;;;;;;;6.58;2.41;;;;;;;;;;372328;107;1961859;-73
2021/07/09 06:19:20;;;;;;;7.77;2.67;;;;;;;;;;368661;107;1962802;-73
2021/07/09 06:20:27;;;;;;;4.96;2.11;;;;;;;;;;377287;107;1962199;-73
2021/07/09 06:21:45;;;;;;;5.92;1.62;;;;;;;;;;349117;104;2869000;-73
2021/07/09 06:22:51;;;;;;;4.14;1.58;;;;;;;;;;338768;107;2699916;-73
2021/07/09 06:23:56;;;;;;;4.44;1.63;;;;;;;;;;308297;107;2516904;-72
2021/07/09 06:25:03;;;;;;;4.77;1.89;;;;;;;;;;332339;103;2637071;-73
2021/07/09 06:26:09;;;;;;;5.23;1.87;;;;;;;;;;367359;108;1961938;-72
2021/07/09 06:27:25;;;;;;;3.83;1.85;;;;;;;;;;365197;109;1962989;-73
2021/07/09 06:28:29;;;;;;;12.31;4.13;;;;;;;;;;362638;109;1962006;-74
2021/07/09 06:29:34;;;;;;;7.62;3.13;;;;;;;;;;362445;111;1961954;-73